createdAt,value
2023-04-15T00:02:25.200Z,8
2023-04-15T00:07:41.533Z,11
2023-04-15T00:12:57.896Z,9
2023-04-15T00:18:14.274Z,8
2023-04-15T00:23:30.669Z,10
2023-04-15T00:28:47.029Z,10
2023-04-15T00:34:03.417Z,11
2023-04-15T00:39:19.775Z,8
2023-04-15T00:44:36.171Z,10
2023-04-15T00:49:52.566Z,8
2023-04-15T00:55:08.949Z,8
2023-04-15T01:00:25.324Z,10
2023-04-15T01:05:41.705Z,9
2023-04-15T01:10:58.082Z,7
2023-04-15T01:16:14.495Z,7
2023-04-15T01:21:30.828Z,8
2023-04-15T01:26:47.217Z,7
2023-04-15T01:32:03.616Z,7
2023-04-15T01:37:19.936Z,8
2023-04-15T01:42:36.349Z,9
2023-04-15T01:47:52.787Z,9
2023-04-15T01:53:09.132Z,10
2023-04-15T01:58:25.486Z,9
2023-04-15T02:03:41.938Z,10
2023-04-15T02:08:58.341Z,8
2023-04-15T02:14:14.638Z,9
2023-04-15T02:19:31.018Z,8
2023-04-15T02:24:47.384Z,9
2023-04-15T02:30:03.779Z,9
2023-04-15T02:35:20.143Z,9
2023-04-15T02:40:36.500Z,6
2023-04-15T02:45:52.946Z,6
2023-04-15T02:51:09.265Z,6
2023-04-15T02:56:25.665Z,5
2023-04-15T03:01:42.098Z,5
2023-04-15T03:06:59.677Z,3
2023-04-15T03:12:16.092Z,3
2023-04-15T03:17:32.475Z,5
2023-04-15T03:22:49.867Z,4
2023-04-15T03:28:06.207Z,6
2023-04-15T03:33:22.587Z,4
2023-04-15T03:38:39.175Z,4
2023-04-15T03:43:55.362Z,5
2023-04-15T03:49:11.772Z,7
2023-04-15T03:54:28.107Z,6
2023-04-15T03:59:44.508Z,12
2023-04-15T04:05:00.911Z,11
2023-04-15T04:10:17.277Z,7
2023-04-15T04:15:33.686Z,8
2023-04-15T04:20:50.023Z,8
2023-04-15T04:26:06.432Z,6
2023-04-15T04:31:22.821Z,6
2023-04-15T04:36:39.132Z,5
2023-04-15T04:41:55.526Z,5
2023-04-15T04:47:11.858Z,4
2023-04-15T04:52:28.272Z,5
2023-04-15T04:57:44.599Z,4
2023-04-15T05:03:01.262Z,7
2023-04-15T05:08:17.579Z,14
2023-04-15T05:13:33.917Z,8
2023-04-15T05:18:51.812Z,12
2023-04-15T05:24:08.175Z,10
2023-04-15T05:29:24.586Z,17
2023-04-15T05:34:40.903Z,5
2023-04-15T05:39:57.272Z,12
2023-04-15T05:45:13.729Z,12
2023-04-15T05:50:30.037Z,7
2023-04-15T05:55:46.426Z,6
2023-04-15T06:01:02.778Z,8
2023-04-15T06:06:19.123Z,4
2023-04-15T06:11:35.543Z,3
2023-04-15T06:16:51.860Z,7
2023-04-15T06:22:08.269Z,8
2023-04-15T06:27:24.626Z,8
2023-04-15T06:32:41.071Z,11
2023-04-15T06:37:57.380Z,4
2023-04-15T06:43:13.732Z,6
2023-04-15T06:48:30.125Z,6
2023-04-15T06:53:46.452Z,8
2023-04-15T06:59:02.915Z,14
2023-04-15T07:04:19.274Z,3
2023-04-15T07:09:35.585Z,17
2023-04-15T07:14:51.969Z,8
2023-04-15T07:20:08.317Z,3
2023-04-15T07:25:24.706Z,4
2023-04-15T07:30:41.081Z,4
2023-04-15T07:35:57.408Z,4
2023-04-15T07:41:13.811Z,2
2023-04-15T07:46:30.153Z,4
2023-04-15T07:51:46.506Z,2
2023-04-15T07:57:02.842Z,14
2023-04-15T08:02:19.328Z,6
2023-04-15T08:07:35.603Z,4
2023-04-15T08:12:51.943Z,4
2023-04-15T08:18:08.275Z,3
2023-04-15T08:23:24.628Z,5
2023-04-15T08:28:41.182Z,3
2023-04-15T08:33:57.561Z,12
2023-04-15T08:39:13.884Z,3
2023-04-15T08:44:30.263Z,2
2023-04-15T08:49:46.582Z,3
2023-04-15T08:55:02.950Z,3
2023-04-15T09:00:19.320Z,3
2023-04-15T09:05:35.634Z,3
2023-04-15T09:10:52.038Z,20
2023-04-15T09:16:08.657Z,19
2023-04-15T09:21:24.726Z,4
2023-04-15T09:26:41.074Z,4
2023-04-15T09:31:57.404Z,3
2023-04-15T09:37:28.598Z,3
2023-04-15T09:42:30.092Z,2
2023-04-15T09:47:46.487Z,2
2023-04-15T09:53:02.771Z,4
2023-04-15T09:58:19.126Z,6
2023-04-15T10:03:35.697Z,5
2023-04-15T10:08:51.829Z,4
2023-04-15T10:14:08.188Z,4
2023-04-15T10:19:24.537Z,8
2023-04-15T10:24:40.910Z,11
2023-04-15T10:29:57.256Z,3
2023-04-15T10:35:13.688Z,3
2023-04-15T10:40:30.034Z,3
2023-04-15T10:45:46.376Z,2
2023-04-15T10:51:02.744Z,2
2023-04-15T10:56:19.072Z,2
2023-04-15T11:01:35.435Z,1
2023-04-15T11:06:51.763Z,3
2023-04-15T11:12:08.082Z,2
2023-04-15T11:17:24.494Z,3
2023-04-15T11:22:40.775Z,2
2023-04-15T11:27:57.108Z,2
2023-04-15T11:33:13.478Z,1
2023-04-15T11:38:29.820Z,2
2023-04-15T11:43:46.198Z,2
2023-04-15T11:49:02.713Z,3
2023-04-15T11:54:18.910Z,2
2023-04-15T11:59:44.479Z,4
2023-04-15T12:04:51.776Z,4
2023-04-15T12:10:08.071Z,3
2023-04-15T12:15:24.413Z,14
2023-04-15T12:20:40.825Z,2
2023-04-15T12:25:57.295Z,3
2023-04-15T12:31:13.693Z,2
2023-04-15T12:36:30.029Z,1
2023-04-15T12:41:46.335Z,1
2023-04-15T12:47:02.931Z,9
2023-04-15T12:52:19.057Z,4
2023-04-15T12:57:35.392Z,2
2023-04-15T13:02:51.837Z,1
2023-04-15T13:08:08.082Z,2
2023-04-15T13:13:24.429Z,4
2023-04-15T13:18:40.758Z,3
2023-04-15T13:23:57.098Z,5
2023-04-15T13:29:13.409Z,6
2023-04-15T13:34:29.724Z,0
2023-04-15T13:39:46.074Z,0
2023-04-15T13:45:02.450Z,0
2023-04-15T13:50:18.735Z,0
2023-04-15T13:55:35.070Z,0
2023-04-15T14:00:51.425Z,1
2023-04-15T14:06:07.766Z,1
2023-04-15T14:11:24.044Z,1
2023-04-15T14:16:40.442Z,1
2023-04-15T14:21:56.700Z,1
2023-04-15T14:27:13.074Z,1
2023-04-15T14:32:29.407Z,0
2023-04-15T14:37:45.716Z,2
2023-04-15T14:43:02.077Z,0
2023-04-15T14:48:18.358Z,0
2023-04-15T14:53:34.721Z,0
2023-04-15T14:58:51.034Z,0
2023-04-15T15:04:07.602Z,1
2023-04-15T15:09:23.774Z,3
2023-04-15T15:14:40.053Z,2
2023-04-15T15:19:56.395Z,2
2023-04-15T15:25:12.711Z,4
2023-04-15T15:30:29.087Z,5
2023-04-15T15:35:45.452Z,4
2023-04-15T15:41:01.759Z,2
2023-04-15T15:46:18.199Z,2
2023-04-15T15:51:34.465Z,2
2023-04-15T15:56:50.837Z,4
2023-04-15T16:02:07.790Z,2
2023-04-15T16:07:24.107Z,3
2023-04-15T16:12:40.428Z,2
2023-04-15T16:17:56.798Z,2
2023-04-15T16:23:13.188Z,2
2023-04-15T16:28:29.497Z,4
2023-04-15T16:33:45.835Z,5
2023-04-15T16:39:02.306Z,5
2023-04-15T16:44:18.565Z,4
2023-04-15T16:49:34.949Z,1
2023-04-15T16:54:51.289Z,1
2023-04-15T17:00:07.660Z,1
2023-04-15T17:05:24.043Z,1
2023-04-15T17:10:40.382Z,1
2023-04-15T17:15:56.780Z,1
2023-04-15T17:21:13.116Z,2
2023-04-15T17:26:29.532Z,1
2023-04-15T17:31:45.904Z,3
2023-04-15T17:37:02.269Z,1
2023-04-15T17:42:18.676Z,2
2023-04-15T17:47:35.120Z,1
2023-04-15T17:52:51.742Z,3
2023-04-15T17:58:08.139Z,3
2023-04-15T18:03:24.708Z,3
2023-04-15T18:08:40.907Z,3
2023-04-15T18:13:57.243Z,3
2023-04-15T18:19:13.959Z,1
2023-04-15T18:24:30.018Z,4
2023-04-15T18:29:46.376Z,3
2023-04-15T18:35:02.793Z,5
2023-04-15T18:40:19.144Z,3
2023-04-15T18:45:35.608Z,3
2023-04-15T18:50:51.930Z,2
2023-04-15T18:56:08.323Z,3
2023-04-15T19:01:24.731Z,2
2023-04-15T19:06:41.051Z,5
2023-04-15T19:11:57.457Z,4
2023-04-15T19:17:13.799Z,5
2023-04-15T19:22:30.188Z,5
2023-04-15T19:27:46.607Z,3
2023-04-15T19:33:03.049Z,1
2023-04-15T19:38:19.351Z,4
2023-04-15T19:43:35.714Z,2
2023-04-15T19:48:52.127Z,2
2023-04-15T19:54:08.530Z,2
2023-04-15T19:59:25.287Z,5
2023-04-15T20:04:41.347Z,5
2023-04-15T20:09:57.687Z,5
2023-04-15T20:15:14.108Z,5
2023-04-15T20:20:30.969Z,11
2023-04-15T20:25:47.358Z,17
2023-04-15T20:31:03.776Z,30
2023-04-15T20:36:20.142Z,16
2023-04-15T20:41:36.538Z,10
2023-04-15T20:46:52.960Z,35
2023-04-15T20:52:09.351Z,22
2023-04-15T20:57:25.737Z,11
2023-04-15T21:02:42.238Z,9
2023-04-15T21:07:58.498Z,20
2023-04-15T21:13:14.930Z,28
2023-04-15T21:18:31.310Z,21
2023-04-15T21:23:47.729Z,20
2023-04-15T21:29:04.348Z,19
2023-04-15T21:34:20.542Z,10
2023-04-15T21:39:36.942Z,29
2023-04-15T21:44:53.309Z,15
2023-04-15T21:50:09.716Z,12
2023-04-15T21:55:26.084Z,10
2023-04-15T22:00:42.502Z,14
2023-04-15T22:05:59.114Z,15
2023-04-15T22:11:15.270Z,10
2023-04-15T22:16:31.761Z,10
2023-04-15T22:21:48.096Z,16
2023-04-15T22:27:04.474Z,18
2023-04-15T22:32:20.939Z,14
2023-04-15T22:37:37.267Z,15
2023-04-15T22:42:53.710Z,10
2023-04-15T22:48:10.035Z,10
2023-04-15T22:53:26.419Z,10
2023-04-15T22:58:42.860Z,12
2023-04-15T23:04:05.979Z,9
2023-04-15T23:09:15.621Z,9
2023-04-15T23:14:31.985Z,7
2023-04-15T23:19:48.374Z,9
2023-04-15T23:25:04.789Z,12
2023-04-15T23:30:21.145Z,7
2023-04-15T23:35:37.573Z,8
2023-04-15T23:40:53.913Z,20
2023-04-15T23:46:10.369Z,17
2023-04-15T23:51:26.717Z,16
2023-04-15T23:56:43.076Z,5
